Time;durP1;ratioP1;P1;durP2;ratioP2;P2;SDS_P1;SDS_P2;PMS_P1;PMS_P2;Temp;Humidity;BMP_temperature;BMP_pressure;BME280_temperature;BME280_humidity;BME280_pressure;Samples;Min_cycle;Max_cycle;Signal;HPM_P1;HPM_P2
2020/12/06 00:00:43;;;;;;;38.60;18.35;;;2.90;99.80;;;;;;5026741;28;20248;-86
2020/12/06 00:03:10;;;;;;;42.67;21.10;;;2.90;99.80;;;;;;5021365;28;20483;-87
2020/12/06 00:05:37;;;;;;;38.05;19.80;;;2.90;99.80;;;;;;5030166;28;20233;-88
2020/12/06 00:08:04;;;;;;;46.50;21.20;;;2.90;99.80;;;;;;5022831;28;20235;-88
2020/12/06 00:10:32;;;;;;;43.72;19.40;;;2.90;99.80;;;;;;5009315;28;20671;-87
2020/12/06 00:12:59;;;;;;;34.88;19.73;;;2.90;99.80;;;;;;5014560;28;20229;-87
2020/12/06 00:15:27;;;;;;;41.25;21.10;;;2.90;99.80;;;;;;5000512;28;20236;-87
2020/12/06 00:17:54;;;;;;;45.92;21.60;;;2.90;99.80;;;;;;5013841;28;20313;-87
2020/12/06 00:20:21;;;;;;;42.78;21.42;;;2.90;99.80;;;;;;5030461;28;20224;-87
2020/12/06 00:22:48;;;;;;;46.97;20.40;;;2.90;99.80;;;;;;5022270;28;20233;-87
2020/12/06 00:25:15;;;;;;;43.58;21.10;;;2.90;99.80;;;;;;5019495;28;20224;-86
2020/12/06 00:27:42;;;;;;;40.05;19.85;;;2.90;99.80;;;;;;5039460;28;20624;-86
2020/12/06 00:30:10;;;;;;;40.92;19.80;;;3.00;99.80;;;;;;5014457;28;20227;-87
2020/12/06 00:32:38;;;;;;;38.90;18.60;;;3.00;99.80;;;;;;5023066;28;20250;-87
2020/12/06 00:35:06;;;;;;;48.35;20.55;;;3.00;99.80;;;;;;5045873;28;20243;-87
2020/12/06 00:37:36;;;;;;;36.63;19.13;;;3.00;99.80;;;;;;5046945;28;20229;-87
2020/12/06 00:40:04;;;;;;;41.90;21.33;;;3.10;99.80;;;;;;5041139;28;20228;-87
2020/12/06 00:42:32;;;;;;;35.45;18.98;;;3.10;99.80;;;;;;5034941;28;20248;-87
2020/12/06 00:44:59;;;;;;;48.92;20.20;;;3.00;99.80;;;;;;5027497;28;20233;-87
2020/12/06 00:47:26;;;;;;;43.35;18.73;;;3.00;99.80;;;;;;5008289;28;20248;-87
2020/12/06 00:49:54;;;;;;;44.05;20.40;;;3.00;99.80;;;;;;5039553;28;20318;-87
2020/12/06 00:52:21;;;;;;;38.15;19.17;;;2.90;99.80;;;;;;5041429;28;20235;-87
2020/12/06 00:54:48;;;;;;;41.53;18.77;;;2.90;99.80;;;;;;5025613;28;20228;-87
2020/12/06 00:57:15;;;;;;;35.50;18.50;;;2.90;99.80;;;;;;5015385;28;20236;-87
2020/12/06 00:59:42;;;;;;;38.60;19.40;;;2.90;99.80;;;;;;5034806;28;20741;-87
2020/12/06 01:02:11;;;;;;;45.30;19.23;;;3.00;99.80;;;;;;5018830;28;20761;-87
2020/12/06 01:04:38;;;;;;;35.47;18.52;;;3.00;99.80;;;;;;5051321;28;20626;-87
2020/12/06 01:07:06;;;;;;;41.72;18.95;;;3.00;99.80;;;;;;5044095;28;20251;-87
2020/12/06 01:09:33;;;;;;;45.50;19.95;;;3.10;99.80;;;;;;5046461;28;20309;-87
2020/12/06 01:12:00;;;;;;;39.50;19.17;;;3.10;99.80;;;;;;5042212;28;20233;-87
2020/12/06 01:14:28;;;;;;;36.40;18.80;;;3.10;99.80;;;;;;5035998;28;20572;-87
2020/12/06 01:16:56;;;;;;;39.50;17.52;;;3.10;99.80;;;;;;5037980;28;20285;-87
2020/12/06 01:19:23;;;;;;;35.35;19.50;;;3.10;99.80;;;;;;5045865;28;20224;-87
2020/12/06 01:21:50;;;;;;;35.95;18.30;;;3.10;99.80;;;;;;5048209;28;20228;-87
2020/12/06 01:24:19;;;;;;;35.60;17.52;;;3.10;99.80;;;;;;5045087;28;20229;-87
2020/12/06 01:26:47;;;;;;;43.38;19.92;;;3.10;99.80;;;;;;5057647;28;20608;-87
2020/12/06 01:29:14;;;;;;;35.22;18.95;;;3.10;99.80;;;;;;5037659;28;20234;-86
2020/12/06 01:31:44;;;;;;;36.85;18.52;;;3.10;99.80;;;;;;5040759;28;20308;-87
2020/12/06 01:34:11;;;;;;;34.38;17.55;;;3.10;99.80;;;;;;5048920;28;20228;-87
2020/12/06 01:36:39;;;;;;;35.95;18.23;;;3.10;99.80;;;;;;5047720;28;20232;-87
2020/12/06 01:39:07;;;;;;;38.63;17.63;;;3.10;99.80;;;;;;5048945;28;20300;-86
2020/12/06 01:41:36;;;;;;;46.75;19.40;;;3.10;99.80;;;;;;5047151;28;20677;-87
2020/12/06 01:44:04;;;;;;;38.42;19.00;;;3.10;99.80;;;;;;5042300;28;20232;-88
2020/12/06 01:46:32;;;;;;;38.47;18.92;;;3.10;99.80;;;;;;5057488;28;20726;-86
2020/12/06 01:48:59;;;;;;;39.40;17.40;;;3.10;99.80;;;;;;5048246;28;20347;-87
2020/12/06 01:51:26;;;;;;;39.05;18.50;;;3.10;99.80;;;;;;5048189;28;20695;-86
2020/12/06 01:53:53;;;;;;;43.38;18.60;;;3.10;99.80;;;;;;5036129;28;20234;-87
2020/12/06 01:56:20;;;;;;;33.22;17.00;;;3.10;99.80;;;;;;5037405;28;20225;-87
2020/12/06 01:58:48;;;;;;;41.03;18.88;;;3.20;99.80;;;;;;5021336;28;20232;-87
2020/12/06 02:01:15;;;;;;;32.65;16.85;;;3.10;99.80;;;;;;5017622;28;20228;-87
2020/12/06 02:03:42;;;;;;;36.17;16.55;;;3.20;99.80;;;;;;5055990;28;20388;-87
2020/12/06 02:06:09;;;;;;;33.00;17.75;;;3.20;99.80;;;;;;5047501;28;20227;-86
2020/12/06 02:08:36;;;;;;;45.00;19.90;;;3.20;99.80;;;;;;5043083;28;20235;-86
2020/12/06 02:11:04;;;;;;;36.05;18.67;;;3.20;99.80;;;;;;5048392;28;20675;-87
2020/12/06 02:13:32;;;;;;;31.15;15.50;;;3.10;99.80;;;;;;5047061;28;20225;-87
2020/12/06 02:16:00;;;;;;;33.17;16.60;;;3.20;99.80;;;;;;5049120;28;20311;-86
2020/12/06 02:18:27;;;;;;;34.03;17.38;;;3.20;99.80;;;;;;5048519;28;20231;-87
2020/12/06 02:21:00;;;;;;;38.05;16.92;;;3.30;99.80;;;;;;5045753;28;20232;-87
2020/12/06 02:23:27;;;;;;;35.40;16.48;;;3.20;99.80;;;;;;5044715;28;20235;-87
2020/12/06 02:25:54;;;;;;;37.08;18.60;;;3.20;99.80;;;;;;5041069;28;20235;-86
2020/12/06 02:28:21;;;;;;;27.77;16.42;;;3.20;99.80;;;;;;5017468;28;20241;-87
2020/12/06 02:30:48;;;;;;;39.38;18.48;;;3.20;99.80;;;;;;5029117;28;20226;-87
2020/12/06 02:33:15;;;;;;;43.50;19.75;;;3.20;99.80;;;;;;5026862;28;20438;-87
2020/12/06 02:35:42;;;;;;;37.83;16.38;;;3.20;99.80;;;;;;5044094;28;20231;-87
2020/12/06 02:38:11;;;;;;;36.50;18.23;;;3.20;99.80;;;;;;5023591;28;20240;-87
2020/12/06 02:40:38;;;;;;;36.47;15.63;;;3.30;99.80;;;;;;5030759;28;20819;-87
2020/12/06 02:43:05;;;;;;;34.58;16.52;;;3.30;99.80;;;;;;5021246;28;20304;-87
2020/12/06 02:45:32;;;;;;;31.27;16.80;;;3.30;99.80;;;;;;5013009;28;20311;-87
2020/12/06 02:47:59;;;;;;;40.45;18.20;;;3.30;99.80;;;;;;5032338;28;20231;-88
2020/12/06 02:50:27;;;;;;;34.28;16.75;;;3.20;99.80;;;;;;5043028;28;20229;-87
2020/12/06 02:52:57;;;;;;;36.08;18.52;;;3.20;99.80;;;;;;5044724;28;20228;-86
2020/12/06 02:55:25;;;;;;;32.88;16.42;;;3.20;99.80;;;;;;5044793;28;20221;-86
2020/12/06 02:57:53;;;;;;;40.80;18.77;;;3.10;99.80;;;;;;5038939;28;20228;-86
2020/12/06 03:00:20;;;;;;;42.08;19.23;;;3.10;99.80;;;;;;5038076;28;20234;-87
2020/12/06 03:02:47;;;;;;;33.20;17.25;;;3.10;99.80;;;;;;5065695;28;20206;-87
2020/12/06 03:05:14;;;;;;;36.55;17.67;;;3.20;99.80;;;;;;5052521;28;20659;-88
2020/12/06 03:07:41;;;;;;;39.08;17.65;;;3.20;99.80;;;;;;5052902;28;20703;-88
2020/12/06 03:10:08;;;;;;;32.63;17.50;;;3.30;99.80;;;;;;5052694;28;20229;-86
2020/12/06 03:12:36;;;;;;;34.60;17.83;;;3.30;99.80;;;;;;5052950;28;20215;-86
2020/12/06 03:15:04;;;;;;;43.83;15.57;;;3.30;99.80;;;;;;5026305;28;20213;-85
2020/12/06 03:17:31;;;;;;;32.70;15.35;;;3.40;99.80;;;;;;5036826;28;20282;-85
2020/12/06 03:19:58;;;;;;;30.38;16.67;;;3.40;99.80;;;;;;5047535;28;20997;-86
2020/12/06 03:22:31;;;;;;;31.25;17.17;;;3.40;99.80;;;;;;5041843;28;20225;-86
2020/12/06 03:24:59;;;;;;;25.90;16.13;;;3.40;99.80;;;;;;5023302;28;20316;-85
2020/12/06 03:27:26;;;;;;;30.13;14.38;;;3.40;99.80;;;;;;5039505;28;20299;-86
2020/12/06 03:29:54;;;;;;;31.23;15.00;;;3.40;99.80;;;;;;5030790;28;20236;-86
2020/12/06 03:32:22;;;;;;;31.30;14.95;;;3.40;99.80;;;;;;5035795;28;20224;-86
2020/12/06 03:34:49;;;;;;;30.98;15.50;;;3.40;99.80;;;;;;5034854;28;20229;-87
2020/12/06 03:37:16;;;;;;;31.27;15.00;;;3.40;99.80;;;;;;5032725;28;20224;-86
2020/12/06 03:39:43;;;;;;;34.45;16.75;;;3.40;99.80;;;;;;5030526;28;20238;-86
2020/12/06 03:42:12;;;;;;;29.17;14.88;;;3.40;99.80;;;;;;5042563;28;20721;-88
2020/12/06 03:44:39;;;;;;;30.30;16.83;;;3.40;99.80;;;;;;5031574;28;20231;-86
2020/12/06 03:47:07;;;;;;;33.83;16.95;;;3.40;99.80;;;;;;5037489;28;20308;-86
2020/12/06 03:49:34;;;;;;;31.98;16.17;;;3.50;99.80;;;;;;5046755;28;20316;-86
2020/12/06 03:52:02;;;;;;;36.47;17.80;;;3.40;99.80;;;;;;5047706;28;20358;-86
2020/12/06 03:54:29;;;;;;;34.65;16.98;;;3.50;99.80;;;;;;5039831;28;20774;-86
2020/12/06 03:56:58;;;;;;;29.88;14.02;;;3.40;99.80;;;;;;5027154;28;20270;-86
2020/12/06 03:59:25;;;;;;;34.78;16.23;;;3.50;99.80;;;;;;5028397;28;20961;-88
2020/12/06 04:01:52;;;;;;;33.53;16.30;;;3.40;99.80;;;;;;5043899;28;20311;-88
2020/12/06 04:04:20;;;;;;;37.63;17.70;;;3.40;99.80;;;;;;5018187;28;20561;-88
2020/12/06 04:06:47;;;;;;;35.10;18.92;;;3.30;99.80;;;;;;5048519;28;20216;-87
2020/12/06 04:09:14;;;;;;;41.78;17.75;;;3.30;99.80;;;;;;5038853;28;20225;-87
2020/12/06 04:11:41;;;;;;;34.47;18.25;;;3.30;99.80;;;;;;5023244;28;20232;-87
2020/12/06 04:14:08;;;;;;;39.22;18.63;;;3.30;99.80;;;;;;5018456;28;20603;-87
2020/12/06 04:16:35;;;;;;;40.72;18.10;;;3.30;99.80;;;;;;5025931;28;20220;-87
2020/12/06 04:19:02;;;;;;;35.42;15.38;;;3.40;99.80;;;;;;5047385;28;20733;-87
2020/12/06 04:21:30;;;;;;;35.03;17.30;;;3.40;99.80;;;;;;5047933;28;20228;-88
2020/12/06 04:23:57;;;;;;;32.50;15.93;;;3.40;99.80;;;;;;5046823;28;20268;-88
2020/12/06 04:26:24;;;;;;;29.05;15.48;;;3.40;99.80;;;;;;5047546;28;20226;-88
2020/12/06 04:28:51;;;;;;;31.50;15.57;;;3.40;99.80;;;;;;5048141;28;20690;-88
2020/12/06 04:31:18;;;;;;;30.65;14.88;;;3.40;99.80;;;;;;5047803;28;20225;-87
2020/12/06 04:33:45;;;;;;;34.22;16.45;;;3.40;99.80;;;;;;5047818;28;20235;-87
2020/12/06 04:36:12;;;;;;;32.45;15.80;;;3.40;99.80;;;;;;5048617;28;20221;-88
2020/12/06 04:38:40;;;;;;;31.15;16.13;;;3.50;99.80;;;;;;5047131;28;20226;-87
2020/12/06 04:41:07;;;;;;;35.40;15.65;;;3.50;99.80;;;;;;5047337;28;20235;-88
2020/12/06 04:43:35;;;;;;;33.42;16.70;;;3.50;99.80;;;;;;5048157;28;20252;-88
2020/12/06 04:46:02;;;;;;;28.00;15.70;;;3.50;99.80;;;;;;5046944;28;20231;-88
2020/12/06 04:48:40;;;;;;;30.70;16.55;;;3.50;99.80;;;;;;5047075;28;20233;-87
2020/12/06 04:51:12;;;;;;;32.88;16.50;;;3.50;99.80;;;;;;5046286;28;20236;-88
2020/12/06 04:53:44;;;;;;;35.47;16.13;;;3.60;99.80;;;;;;5047673;28;20224;-87
2020/12/06 04:56:12;;;;;;;34.30;16.33;;;3.60;99.80;;;;;;5051320;28;20717;-87
2020/12/06 04:58:40;;;;;;;35.92;18.13;;;3.60;99.80;;;;;;5049981;28;20228;-88
2020/12/06 05:01:07;;;;;;;33.58;16.00;;;3.50;99.80;;;;;;5045344;28;20240;-87
2020/12/06 05:03:36;;;;;;;31.83;15.75;;;3.50;99.80;;;;;;5051940;28;20229;-88
2020/12/06 05:06:05;;;;;;;34.80;16.10;;;3.50;99.80;;;;;;5051345;28;20905;-88
2020/12/06 05:08:36;;;;;;;42.42;18.95;;;3.50;99.80;;;;;;5051526;28;20228;-87
2020/12/06 05:11:05;;;;;;;26.42;14.50;;;3.50;99.80;;;;;;5051303;28;20237;-87
2020/12/06 05:13:32;;;;;;;34.03;15.15;;;3.50;99.80;;;;;;5051608;28;20246;-88
2020/12/06 05:16:05;;;;;;;29.85;15.35;;;3.60;99.80;;;;;;5050290;28;20236;-88
2020/12/06 05:18:32;;;;;;;31.83;15.27;;;3.50;99.80;;;;;;5049512;28;20236;-87
2020/12/06 05:20:59;;;;;;;34.55;16.92;;;3.50;99.80;;;;;;5050690;28;20228;-88
2020/12/06 05:23:26;;;;;;;34.35;17.45;;;3.50;99.80;;;;;;5050595;28;20675;-87
2020/12/06 05:25:54;;;;;;;30.90;15.63;;;3.50;99.80;;;;;;5050054;28;20237;-87
2020/12/06 05:28:22;;;;;;;35.92;15.57;;;3.50;99.80;;;;;;5039431;28;20235;-87
2020/12/06 05:30:49;;;;;;;33.17;16.35;;;3.50;99.80;;;;;;5051309;28;20229;-88
2020/12/06 05:33:17;;;;;;;32.30;15.20;;;3.50;99.80;;;;;;5049701;28;20710;-87
2020/12/06 05:35:44;;;;;;;33.38;16.13;;;3.50;99.80;;;;;;5050550;28;20616;-87
2020/12/06 05:38:13;;;;;;;35.15;16.55;;;3.50;99.80;;;;;;5050759;28;20236;-87
2020/12/06 05:40:45;;;;;;;32.15;16.25;;;3.50;99.80;;;;;;5050173;28;20263;-87
2020/12/06 05:43:12;;;;;;;34.58;15.90;;;3.50;99.80;;;;;;5050541;28;20304;-87
2020/12/06 05:45:40;;;;;;;41.10;17.30;;;3.60;99.80;;;;;;5050605;28;20227;-87
2020/12/06 05:48:07;;;;;;;33.85;16.35;;;3.60;99.80;;;;;;5047952;28;20251;-87
2020/12/06 05:50:35;;;;;;;33.05;15.27;;;3.60;99.80;;;;;;5016872;28;20234;-86
2020/12/06 05:53:04;;;;;;;31.00;16.25;;;3.60;99.80;;;;;;5039435;28;20227;-87
2020/12/06 05:55:32;;;;;;;34.28;15.18;;;3.60;99.80;;;;;;5035380;28;20225;-87
2020/12/06 05:58:02;;;;;;;30.70;15.82;;;3.60;99.80;;;;;;5028748;28;20244;-87
2020/12/06 06:00:30;;;;;;;35.60;18.42;;;3.60;99.80;;;;;;5034862;28;20232;-87
2020/12/06 06:02:59;;;;;;;43.70;16.75;;;3.60;99.80;;;;;;5048125;28;20225;-88
2020/12/06 06:05:27;;;;;;;30.52;15.90;;;3.50;99.80;;;;;;5049530;28;20236;-87
2020/12/06 06:08:05;;;;;;;42.90;17.83;;;3.50;99.80;;;;;;5052710;28;20579;-87
2020/12/06 06:10:34;;;;;;;33.28;18.15;;;3.60;99.80;;;;;;5050361;28;20224;-87
2020/12/06 06:13:03;;;;;;;32.53;16.38;;;3.60;99.80;;;;;;5039564;28;20654;-88
2020/12/06 06:15:31;;;;;;;37.85;18.45;;;3.70;99.80;;;;;;5049845;28;20225;-87
2020/12/06 06:18:01;;;;;;;44.05;18.40;;;3.70;99.80;;;;;;5031544;28;20267;-87
2020/12/06 06:20:29;;;;;;;37.13;16.65;;;3.70;99.80;;;;;;5011063;28;20236;-87
2020/12/06 06:22:59;;;;;;;34.83;17.55;;;3.70;99.80;;;;;;5017491;28;20236;-86
2020/12/06 06:25:28;;;;;;;35.53;17.02;;;3.60;99.80;;;;;;5013379;28;20279;-87
2020/12/06 06:27:55;;;;;;;29.63;15.75;;;3.60;99.80;;;;;;5010166;28;20586;-87
2020/12/06 06:30:23;;;;;;;33.75;16.38;;;3.60;99.80;;;;;;5009836;28;20557;-87
2020/12/06 06:32:50;;;;;;;35.40;17.85;;;3.60;99.80;;;;;;5025676;28;20224;-87
2020/12/06 06:35:19;;;;;;;36.33;17.33;;;3.60;99.80;;;;;;5028551;28;20271;-88
2020/12/06 06:37:47;;;;;;;37.83;18.63;;;3.60;99.80;;;;;;5030310;28;20730;-87
2020/12/06 06:40:14;;;;;;;31.20;18.15;;;3.60;99.80;;;;;;5044788;28;20225;-87
2020/12/06 06:42:42;;;;;;;40.13;17.80;;;3.60;99.80;;;;;;5049974;28;20589;-87
2020/12/06 06:45:11;;;;;;;38.45;16.35;;;3.60;99.80;;;;;;5040895;28;20225;-87
2020/12/06 06:47:39;;;;;;;38.05;18.15;;;3.60;99.80;;;;;;5050379;28;20240;-86
2020/12/06 06:50:08;;;;;;;37.53;17.58;;;3.60;99.80;;;;;;5044127;28;20225;-86
2020/12/06 06:52:39;;;;;;;39.55;18.20;;;3.60;99.80;;;;;;5026432;28;20231;-87
2020/12/06 06:55:08;;;;;;;37.42;17.95;;;3.60;99.80;;;;;;5027242;28;20314;-87
2020/12/06 06:57:39;;;;;;;46.13;18.23;;;3.50;99.80;;;;;;5035192;28;20228;-86
2020/12/06 07:00:06;;;;;;;37.70;17.23;;;3.60;99.80;;;;;;5031672;28;20232;-86
2020/12/06 07:02:35;;;;;;;44.60;19.80;;;3.50;99.80;;;;;;5040232;28;20227;-85
2020/12/06 07:05:05;;;;;;;31.83;15.95;;;3.60;99.80;;;;;;5059217;28;20229;-85
2020/12/06 07:07:43;;;;;;;35.97;17.60;;;3.60;99.80;;;;;;5050862;28;20718;-86
2020/12/06 07:10:12;;;;;;;36.20;15.25;;;3.60;99.80;;;;;;5050606;28;20232;-85
2020/12/06 07:12:42;;;;;;;38.45;17.60;;;3.70;99.80;;;;;;5050404;28;20231;-86
2020/12/06 07:15:10;;;;;;;30.45;14.93;;;3.70;99.80;;;;;;5050125;28;20232;-86
2020/12/06 07:17:38;;;;;;;27.90;15.10;;;3.70;99.80;;;;;;5049447;28;20311;-85
2020/12/06 07:20:06;;;;;;;32.15;15.38;;;3.70;99.80;;;;;;5051394;28;20308;-86
2020/12/06 07:22:34;;;;;;;36.13;14.65;;;3.70;99.80;;;;;;5031214;28;20243;-85
2020/12/06 07:25:02;;;;;;;34.45;17.45;;;3.80;99.80;;;;;;5029597;28;20229;-86
2020/12/06 07:27:29;;;;;;;31.20;15.25;;;3.80;99.80;;;;;;5036267;28;20231;-86
2020/12/06 07:29:56;;;;;;;29.65;14.82;;;3.80;99.80;;;;;;5037651;28;20283;-85
2020/12/06 07:32:23;;;;;;;30.02;15.85;;;3.80;99.80;;;;;;5028781;28;20286;-86
2020/12/06 07:34:51;;;;;;;30.65;15.05;;;3.80;99.80;;;;;;5059429;28;20229;-86
2020/12/06 07:37:18;;;;;;;30.98;15.45;;;3.80;99.80;;;;;;5048504;28;20233;-86
2020/12/06 07:39:47;;;;;;;36.13;15.77;;;3.80;99.80;;;;;;5049062;28;20237;-85
2020/12/06 07:42:19;;;;;;;27.60;14.23;;;3.80;99.80;;;;;;5050603;28;20236;-85
2020/12/06 07:44:48;;;;;;;38.83;17.05;;;3.80;99.80;;;;;;5049280;28;20230;-86
2020/12/06 07:47:15;;;;;;;37.30;15.40;;;3.80;99.80;;;;;;5047705;28;21975;-86
2020/12/06 07:49:47;;;;;;;35.97;16.77;;;3.80;99.80;;;;;;5047813;28;20266;-86
2020/12/06 07:52:15;;;;;;;31.30;16.02;;;3.90;99.80;;;;;;5047947;28;20312;-86
2020/12/06 07:54:52;;;;;;;27.75;14.93;;;3.90;99.80;;;;;;5037706;28;20238;-85
2020/12/06 07:57:38;;;;;;;26.58;13.65;;;3.90;99.80;;;;;;5036594;28;20596;-86
2020/12/06 08:00:08;;;;;;;28.77;12.90;;;3.90;99.80;;;;;;5023770;28;20745;-87
2020/12/06 08:02:36;;;;;;;29.67;15.20;;;4.00;99.80;;;;;;4974239;28;20233;-85
2020/12/06 08:05:04;;;;;;;30.33;14.73;;;4.00;99.80;;;;;;5011133;28;20281;-86
2020/12/06 08:07:37;;;;;;;30.83;15.25;;;4.00;99.80;;;;;;5012107;28;20224;-86
2020/12/06 08:10:05;;;;;;;32.67;16.02;;;4.00;99.80;;;;;;5012248;28;20233;-85
2020/12/06 08:12:35;;;;;;;30.23;19.88;;;4.00;99.80;;;;;;5014743;28;20712;-86
2020/12/06 08:15:04;;;;;;;32.60;17.08;;;4.00;99.80;;;;;;5014126;28;20239;-86
2020/12/06 08:17:45;;;;;;;31.85;15.82;;;4.00;99.80;;;;;;5017536;28;20229;-86
2020/12/06 08:20:14;;;;;;;31.92;14.65;;;4.10;99.80;;;;;;5027475;28;20225;-86
2020/12/06 08:22:52;;;;;;;31.73;16.95;;;4.00;99.80;;;;;;5027243;28;20222;-86
2020/12/06 08:25:21;;;;;;;28.35;15.35;;;4.10;99.80;;;;;;5025281;28;20589;-86
2020/12/06 08:27:50;;;;;;;33.28;15.85;;;4.10;99.80;;;;;;5027686;28;20240;-85
2020/12/06 08:30:19;;;;;;;28.00;15.05;;;4.10;99.80;;;;;;5026570;28;20746;-85
2020/12/06 08:32:54;;;;;;;28.80;14.95;;;4.00;99.80;;;;;;5026956;28;20230;-86
2020/12/06 08:35:21;;;;;;;28.33;13.80;;;4.00;99.80;;;;;;5017771;28;20239;-86
2020/12/06 08:37:52;;;;;;;33.97;16.58;;;4.00;99.80;;;;;;5011228;28;20703;-86
2020/12/06 08:40:19;;;;;;;32.88;16.63;;;4.00;99.80;;;;;;5007378;28;20252;-86
2020/12/06 08:42:58;;;;;;;36.88;17.50;;;4.00;99.80;;;;;;5013147;28;20237;-86
2020/12/06 08:45:25;;;;;;;31.42;15.45;;;4.00;99.80;;;;;;4992121;28;20223;-88
2020/12/06 08:47:52;;;;;;;36.47;18.75;;;4.00;99.80;;;;;;5002716;28;20241;-85
2020/12/06 08:50:19;;;;;;;33.63;17.00;;;4.00;99.80;;;;;;5032159;28;20332;-86
2020/12/06 08:52:55;;;;;;;31.35;17.13;;;4.00;99.80;;;;;;5026856;28;20311;-85
2020/12/06 08:55:30;;;;;;;31.02;16.73;;;3.90;99.80;;;;;;5027660;28;20308;-86
2020/12/06 08:57:58;;;;;;;30.40;15.10;;;4.00;99.80;;;;;;5027788;28;20290;-86
2020/12/06 09:00:30;;;;;;;31.92;16.05;;;4.00;99.80;;;;;;5026937;28;20229;-85
2020/12/06 09:02:59;;;;;;;30.90;16.20;;;4.00;99.80;;;;;;5027532;28;20230;-86
2020/12/06 09:05:27;;;;;;;32.25;15.40;;;4.10;99.80;;;;;;5027317;28;20717;-86
2020/12/06 09:07:54;;;;;;;31.15;15.35;;;4.10;99.80;;;;;;5010187;28;20228;-85
2020/12/06 09:10:22;;;;;;;29.50;16.80;;;4.10;99.80;;;;;;5031015;28;20295;-87
2020/12/06 09:12:49;;;;;;;27.58;14.05;;;4.20;99.80;;;;;;5002841;28;20231;-85
2020/12/06 09:15:17;;;;;;;33.05;16.65;;;4.20;99.80;;;;;;5002484;28;20434;-86
2020/12/06 09:17:43;;;;;;;29.13;14.60;;;4.20;99.80;;;;;;5027119;28;20758;-86
2020/12/06 09:20:10;;;;;;;34.47;16.40;;;4.20;99.80;;;;;;5030309;28;20226;-87
2020/12/06 09:22:37;;;;;;;33.92;17.20;;;4.20;99.80;;;;;;5028051;28;20230;-86
2020/12/06 09:25:04;;;;;;;32.33;16.05;;;4.20;99.80;;;;;;5027295;28;20222;-86
2020/12/06 09:27:32;;;;;;;28.70;15.27;;;4.30;99.80;;;;;;5026885;28;20223;-86
2020/12/06 09:29:59;;;;;;;33.03;16.65;;;4.30;99.80;;;;;;5027158;28;20236;-86
2020/12/06 09:32:28;;;;;;;34.30;16.20;;;4.30;99.80;;;;;;5028598;28;20283;-86
2020/12/06 09:34:54;;;;;;;32.90;15.80;;;4.30;99.80;;;;;;5020053;28;20239;-87
2020/12/06 09:37:22;;;;;;;29.58;15.40;;;4.30;99.80;;;;;;5040537;28;20230;-86
2020/12/06 09:39:49;;;;;;;32.40;16.33;;;4.30;99.80;;;;;;5010435;28;20235;-85
2020/12/06 09:42:16;;;;;;;37.83;16.42;;;4.40;99.80;;;;;;5009240;28;20936;-88
2020/12/06 09:44:44;;;;;;;30.50;15.13;;;4.40;99.80;;;;;;5001497;28;20737;-85
2020/12/06 09:47:11;;;;;;;30.75;16.05;;;4.40;99.80;;;;;;5015346;28;20761;-86
2020/12/06 09:49:38;;;;;;;27.08;15.15;;;4.40;99.80;;;;;;5017920;28;20267;-85
2020/12/06 09:52:05;;;;;;;31.08;16.00;;;4.50;99.80;;;;;;5009139;28;20741;-86
2020/12/06 09:54:32;;;;;;;29.98;14.18;;;4.50;99.80;;;;;;5016038;28;20225;-86
2020/12/06 09:57:02;;;;;;;33.92;16.60;;;4.50;99.80;;;;;;5008614;28;20779;-86
2020/12/06 09:59:29;;;;;;;31.27;16.45;;;4.50;99.80;;;;;;4987917;28;20693;-86
2020/12/06 10:01:57;;;;;;;31.52;17.25;;;4.60;99.80;;;;;;5003602;28;20319;-85
2020/12/06 10:04:24;;;;;;;31.05;16.20;;;4.70;99.80;;;;;;5036020;28;20228;-86
2020/12/06 10:06:52;;;;;;;51.50;23.33;;;4.70;99.80;;;;;;5021345;28;20729;-86
2020/12/06 10:09:19;;;;;;;39.35;18.80;;;4.80;99.80;;;;;;5031854;28;20233;-85
2020/12/06 10:11:46;;;;;;;38.55;18.20;;;4.80;99.80;;;;;;5025851;28;20243;-85
2020/12/06 10:14:13;;;;;;;34.03;16.35;;;5.00;99.80;;;;;;5032820;28;20710;-86
2020/12/06 10:16:41;;;;;;;33.72;16.10;;;5.20;99.80;;;;;;5029575;28;20318;-85
2020/12/06 10:19:08;;;;;;;33.53;16.80;;;5.20;99.80;;;;;;5031561;28;20800;-85
2020/12/06 10:21:35;;;;;;;29.35;17.38;;;5.40;99.80;;;;;;5032468;28;20233;-85
2020/12/06 10:24:03;;;;;;;30.52;15.05;;;5.50;99.80;;;;;;5032748;28;21072;-84
2020/12/06 10:26:30;;;;;;;29.33;15.43;;;5.50;99.80;;;;;;5032487;28;20227;-85
2020/12/06 10:28:58;;;;;;;34.40;18.30;;;5.60;99.80;;;;;;5032152;28;20247;-85
2020/12/06 10:31:25;;;;;;;31.10;17.65;;;5.60;99.80;;;;;;5030173;28;20231;-87
2020/12/06 10:33:52;;;;;;;32.85;17.33;;;5.70;99.80;;;;;;5033001;28;20263;-86
2020/12/06 10:36:19;;;;;;;35.55;16.50;;;5.90;99.80;;;;;;5032926;28;20220;-89
2020/12/06 10:38:46;;;;;;;30.02;16.27;;;6.00;99.80;;;;;;5031373;28;20240;-85
2020/12/06 10:41:14;;;;;;;33.30;15.43;;;6.00;99.80;;;;;;5032243;28;20229;-86
2020/12/06 10:43:41;;;;;;;25.85;15.18;;;6.10;99.80;;;;;;5032165;28;20229;-86
2020/12/06 10:46:08;;;;;;;28.65;14.38;;;6.10;99.80;;;;;;5040221;28;20244;-86
2020/12/06 10:48:35;;;;;;;34.15;17.00;;;6.10;99.80;;;;;;5051757;28;20238;-87
2020/12/06 10:51:03;;;;;;;29.48;16.05;;;6.00;99.80;;;;;;5052586;28;20251;-86
2020/12/06 10:53:30;;;;;;;29.20;15.77;;;5.90;99.80;;;;;;5053121;28;20301;-86
2020/12/06 10:55:57;;;;;;;34.22;16.50;;;5.80;99.80;;;;;;5052445;28;20615;-86
2020/12/06 10:58:24;;;;;;;31.75;16.25;;;5.70;99.80;;;;;;5051387;28;20317;-86
2020/12/06 11:00:51;;;;;;;32.13;16.75;;;5.70;99.80;;;;;;5032910;28;20323;-86
2020/12/06 11:03:18;;;;;;;35.20;17.30;;;5.70;99.80;;;;;;5032478;28;20231;-86
2020/12/06 11:05:45;;;;;;;33.10;17.30;;;5.60;99.80;;;;;;5032236;28;20235;-86
2020/12/06 11:08:12;;;;;;;38.35;18.33;;;5.60;99.80;;;;;;5031397;28;20239;-86
2020/12/06 11:10:39;;;;;;;33.05;16.50;;;5.50;99.80;;;;;;5032391;28;20232;-86
2020/12/06 11:13:06;;;;;;;33.35;16.70;;;5.50;99.80;;;;;;5031749;28;20682;-87
2020/12/06 11:15:34;;;;;;;31.08;16.05;;;5.40;99.80;;;;;;5031345;28;20228;-87
2020/12/06 11:18:08;;;;;;;34.95;16.15;;;5.50;99.80;;;;;;5031698;28;20232;-86
2020/12/06 11:20:36;;;;;;;32.58;16.52;;;5.40;99.80;;;;;;5031540;28;20846;-87
2020/12/06 11:23:03;;;;;;;34.58;16.27;;;5.40;99.80;;;;;;5031545;28;20231;-87
2020/12/06 11:25:30;;;;;;;29.25;16.98;;;5.30;99.80;;;;;;5030031;28;20232;-84
2020/12/06 11:27:58;;;;;;;27.95;15.02;;;5.30;99.80;;;;;;5033454;28;20266;-85
2020/12/06 11:30:25;;;;;;;31.17;17.13;;;5.30;99.80;;;;;;5032756;28;20312;-88
2020/12/06 11:32:53;;;;;;;29.23;16.10;;;5.30;99.80;;;;;;5037800;28;20227;-87
2020/12/06 11:35:21;;;;;;;34.45;18.40;;;5.40;99.80;;;;;;5038846;28;20242;-86
2020/12/06 11:37:48;;;;;;;34.47;16.88;;;5.30;99.80;;;;;;5031614;28;20289;-85
2020/12/06 11:40:15;;;;;;;32.20;16.33;;;5.30;99.80;;;;;;5032086;28;20600;-86
2020/12/06 11:42:42;;;;;;;33.33;17.15;;;5.40;99.80;;;;;;5030915;28;20235;-86
2020/12/06 11:45:10;;;;;;;34.92;17.30;;;5.40;99.80;;;;;;5031175;28;20236;-87
2020/12/06 11:47:37;;;;;;;35.38;17.33;;;5.40;99.80;;;;;;5013279;28;20601;-87
2020/12/06 11:50:05;;;;;;;32.95;16.10;;;5.40;99.80;;;;;;5009998;28;20228;-86
2020/12/06 11:52:33;;;;;;;30.92;17.00;;;5.30;99.80;;;;;;5009842;28;20233;-87
2020/12/06 11:55:00;;;;;;;32.58;17.73;;;5.30;99.80;;;;;;5009984;28;20904;-86
2020/12/06 11:57:28;;;;;;;33.95;16.77;;;5.20;99.80;;;;;;5010066;28;20236;-86
2020/12/06 11:59:55;;;;;;;32.90;16.50;;;5.30;99.80;;;;;;5010034;28;20234;-86
2020/12/06 12:02:22;;;;;;;39.38;17.30;;;5.30;99.80;;;;;;5010175;28;20255;-86
2020/12/06 12:04:50;;;;;;;30.52;16.50;;;5.30;99.80;;;;;;5010447;28;20230;-86
2020/12/06 12:07:19;;;;;;;31.70;17.83;;;5.20;99.80;;;;;;5010800;28;21376;-86
2020/12/06 12:09:46;;;;;;;34.85;17.55;;;5.20;99.80;;;;;;5011348;28;20241;-87
2020/12/06 12:12:13;;;;;;;32.50;17.50;;;5.10;99.80;;;;;;5009935;28;20246;-86
2020/12/06 12:14:41;;;;;;;36.20;19.13;;;5.20;99.80;;;;;;5011472;28;20292;-87
2020/12/06 12:17:08;;;;;;;30.73;16.85;;;5.20;99.80;;;;;;5010113;28;20238;-86
2020/12/06 12:19:35;;;;;;;34.00;18.73;;;5.10;99.80;;;;;;5009755;28;20320;-85
2020/12/06 12:22:02;;;;;;;30.05;16.17;;;5.10;99.80;;;;;;5010584;28;20236;-86
2020/12/06 12:24:30;;;;;;;32.92;17.70;;;5.10;99.80;;;;;;5010557;28;20234;-86
2020/12/06 12:26:59;;;;;;;41.53;17.20;;;5.10;99.80;;;;;;5010738;28;20293;-86
2020/12/06 12:29:26;;;;;;;32.17;15.13;;;5.10;99.80;;;;;;5010243;28;20324;-86
2020/12/06 12:31:53;;;;;;;32.55;17.30;;;5.10;99.80;;;;;;5011195;28;20240;-85
2020/12/06 12:34:21;;;;;;;33.10;15.40;;;5.20;99.80;;;;;;5010913;28;20225;-87
2020/12/06 12:36:48;;;;;;;30.35;15.93;;;5.20;99.80;;;;;;5010737;28;20326;-86
2020/12/06 12:39:16;;;;;;;37.80;19.00;;;5.20;99.80;;;;;;5010782;28;20233;-87